createdAt,value
2019-01-15T00:00:17.542Z,3.50
2019-01-15T00:02:46.135Z,3.50
2019-01-15T00:05:14.950Z,3.40
2019-01-15T00:07:46.605Z,3.40
2019-01-15T00:10:14.983Z,3.40
2019-01-15T00:12:43.537Z,3.40
2019-01-15T00:15:12.274Z,3.50
2019-01-15T00:17:40.666Z,3.40
2019-01-15T00:20:12.567Z,3.40
2019-01-15T00:22:41.063Z,3.40
2019-01-15T00:25:09.831Z,3.40
2019-01-15T00:27:38.323Z,3.40
2019-01-15T00:30:10.335Z,3.40
2019-01-15T00:32:38.813Z,3.30
2019-01-15T00:35:07.950Z,3.30
2019-01-15T00:37:36.398Z,3.20
2019-01-15T00:40:08.295Z,3.20
2019-01-15T00:42:36.791Z,3.00
2019-01-15T00:45:07.511Z,3.00
2019-01-15T00:47:36.060Z,3.10
2019-01-15T00:50:07.409Z,3.10
2019-01-15T00:52:35.750Z,3.10
2019-01-15T00:55:05.316Z,3.10
2019-01-15T00:57:33.733Z,3.00
2019-01-15T01:00:02.193Z,3.00
2019-01-15T01:02:30.582Z,2.90
2019-01-15T01:05:01.149Z,2.90
2019-01-15T01:07:29.651Z,2.90
2019-01-15T01:09:58.227Z,2.90
2019-01-15T01:12:27.063Z,2.90
2019-01-15T01:14:55.595Z,3.00
2019-01-15T01:17:24.002Z,3.00
2019-01-15T01:19:52.520Z,3.00
2019-01-15T01:22:20.927Z,3.00
2019-01-15T01:24:53.427Z,3.00
2019-01-15T01:27:21.930Z,3.10
2019-01-15T01:29:50.688Z,3.20
2019-01-15T01:32:19.171Z,3.20
2019-01-15T01:34:47.570Z,3.20
2019-01-15T01:37:15.892Z,3.20
2019-01-15T01:39:44.609Z,3.20
2019-01-15T01:42:13.132Z,3.20
2019-01-15T01:44:47.717Z,3.30
2019-01-15T01:47:16.155Z,3.30
2019-01-15T01:49:44.814Z,3.20
2019-01-15T01:52:13.475Z,3.20
2019-01-15T01:54:42.456Z,3.30
2019-01-15T01:57:10.982Z,3.30
2019-01-15T01:59:39.305Z,3.20
2019-01-15T02:02:07.900Z,3.20
2019-01-15T02:04:36.198Z,3.30
2019-01-15T02:07:05.018Z,3.30
2019-01-15T02:09:33.456Z,3.30
2019-01-15T02:12:02.275Z,3.30
2019-01-15T02:14:30.966Z,3.40
2019-01-15T02:16:59.276Z,3.30
2019-01-15T02:19:27.603Z,3.30
2019-01-15T02:21:56.415Z,3.30
2019-01-15T02:24:25.316Z,3.40
2019-01-15T02:26:53.906Z,3.40
2019-01-15T02:29:22.401Z,3.30
2019-01-15T02:31:50.737Z,3.30
2019-01-15T02:34:19.207Z,3.30
2019-01-15T02:36:47.818Z,3.20
2019-01-15T02:39:16.533Z,3.20
2019-01-15T02:41:45.484Z,3.20
2019-01-15T02:44:13.879Z,3.30
2019-01-15T02:46:44.159Z,3.30
2019-01-15T02:49:12.519Z,3.30
2019-01-15T02:51:41.536Z,3.30
2019-01-15T02:54:10.027Z,3.40
2019-01-15T02:56:38.770Z,3.40
2019-01-15T02:59:07.194Z,3.40
2019-01-15T03:01:35.667Z,3.40
2019-01-15T03:04:04.120Z,3.40
2019-01-15T03:06:32.735Z,3.50
2019-01-15T03:09:01.310Z,3.50
2019-01-15T03:11:29.953Z,3.40
2019-01-15T03:13:58.555Z,3.40
2019-01-15T03:16:26.939Z,3.30
2019-01-15T03:18:55.354Z,3.40
2019-01-15T03:21:23.925Z,3.40
2019-01-15T03:23:52.414Z,3.50
2019-01-15T03:26:20.958Z,3.50
2019-01-15T03:28:49.377Z,3.50
2019-01-15T03:31:17.965Z,3.50
2019-01-15T03:33:46.683Z,3.50
2019-01-15T03:36:15.151Z,3.50
2019-01-15T03:38:43.577Z,3.50
2019-01-15T03:41:12.267Z,3.50
2019-01-15T03:43:40.620Z,3.50
2019-01-15T03:46:09.096Z,3.50
2019-01-15T03:48:37.582Z,3.50
2019-01-15T03:51:05.949Z,3.50
2019-01-15T03:53:34.477Z,3.50
2019-01-15T03:56:03.121Z,3.40
2019-01-15T03:58:31.599Z,3.40
2019-01-15T04:01:00.382Z,3.40
2019-01-15T04:03:28.875Z,3.40
2019-01-15T04:05:57.862Z,3.40
2019-01-15T04:08:26.579Z,3.40
2019-01-15T04:10:55.373Z,3.40
2019-01-15T04:13:23.758Z,3.40
2019-01-15T04:15:52.261Z,3.40
2019-01-15T04:18:20.618Z,3.40
2019-01-15T04:20:49.201Z,3.40
2019-01-15T04:23:17.660Z,3.40
2019-01-15T04:25:46.190Z,3.40
2019-01-15T04:28:16.898Z,3.40
2019-01-15T04:30:45.325Z,3.40
2019-01-15T04:33:13.804Z,3.40
2019-01-15T04:35:44.122Z,3.40
2019-01-15T04:38:12.838Z,3.40
2019-01-15T04:40:41.491Z,3.40
2019-01-15T04:43:19.764Z,3.30
2019-01-15T04:45:48.011Z,3.40
2019-01-15T04:48:20.573Z,3.30
2019-01-15T04:50:49.398Z,3.40
2019-01-15T04:53:19.426Z,3.40
2019-01-15T04:55:47.865Z,3.40
2019-01-15T04:58:17.200Z,3.40
2019-01-15T05:00:45.629Z,3.30
2019-01-15T05:03:14.532Z,3.40
2019-01-15T05:05:42.827Z,3.30
2019-01-15T05:08:11.432Z,3.40
2019-01-15T05:10:39.987Z,3.30
2019-01-15T05:13:08.686Z,3.30
2019-01-15T05:15:37.578Z,3.40
2019-01-15T05:18:06.325Z,3.40
2019-01-15T05:20:35.126Z,3.40
2019-01-15T05:23:03.847Z,3.40
2019-01-15T05:25:32.725Z,3.40
2019-01-15T05:28:01.296Z,3.40
2019-01-15T05:30:29.906Z,3.40
2019-01-15T05:32:58.534Z,3.50
2019-01-15T05:35:26.862Z,3.40
2019-01-15T05:37:55.431Z,3.40
2019-01-15T05:40:23.822Z,3.40
2019-01-15T05:42:55.801Z,3.40
2019-01-15T05:45:33.394Z,3.40
2019-01-15T05:48:06.275Z,3.50
2019-01-15T05:50:36.551Z,3.50
2019-01-15T05:53:04.998Z,3.50
2019-01-15T05:55:33.947Z,3.40
2019-01-15T05:58:02.733Z,3.40
2019-01-15T06:00:31.386Z,3.50
2019-01-15T06:03:00.208Z,3.40
2019-01-15T06:05:29.084Z,3.40
2019-01-15T06:07:57.516Z,3.40
2019-01-15T06:10:26.079Z,3.50
2019-01-15T06:12:54.860Z,3.50
2019-01-15T06:15:23.950Z,3.30
2019-01-15T06:17:52.558Z,3.30
2019-01-15T06:20:21.661Z,3.30
2019-01-15T06:22:50.245Z,3.40
2019-01-15T06:25:18.688Z,3.30
2019-01-15T06:27:47.700Z,3.40
2019-01-15T06:30:21.376Z,3.40
2019-01-15T06:32:50.004Z,3.40
2019-01-15T06:35:18.605Z,3.40
2019-01-15T06:37:47.309Z,3.40
2019-01-15T06:40:20.189Z,3.50
2019-01-15T06:42:48.625Z,3.40
2019-01-15T06:45:29.113Z,3.60
2019-01-15T06:48:03.928Z,3.60
2019-01-15T06:50:32.527Z,3.60
2019-01-15T06:53:01.185Z,3.60
2019-01-15T06:55:32.575Z,3.60
2019-01-15T06:58:01.142Z,3.70
2019-01-15T07:00:31.116Z,3.60
2019-01-15T07:03:00.139Z,3.70
2019-01-15T07:05:28.606Z,3.70
2019-01-15T07:07:57.043Z,3.70
2019-01-15T07:13:39.334Z,3.70
2019-01-15T07:16:08.168Z,3.70
2019-01-15T07:18:36.832Z,3.70
2019-01-15T07:21:05.216Z,3.60
2019-01-15T07:23:33.628Z,3.70
2019-01-15T07:26:02.217Z,3.80
2019-01-15T07:28:30.825Z,3.80
2019-01-15T07:30:59.461Z,3.90
2019-01-15T07:33:28.127Z,3.80
2019-01-15T07:35:56.589Z,3.80
2019-01-15T07:38:26.725Z,3.80
2019-01-15T07:40:55.187Z,3.70
2019-01-15T07:43:24.061Z,3.70
2019-01-15T07:45:52.639Z,3.70
2019-01-15T07:48:21.241Z,3.60
2019-01-15T07:50:49.668Z,3.60
2019-01-15T07:53:18.109Z,3.70
2019-01-15T07:55:46.732Z,3.70
2019-01-15T07:58:15.247Z,3.70
2019-01-15T08:00:44.306Z,3.70
2019-01-15T08:03:15.758Z,3.70
2019-01-15T08:05:44.355Z,3.70
2019-01-15T08:08:12.937Z,3.70
2019-01-15T08:10:41.823Z,3.70
2019-01-15T08:13:10.424Z,3.70
2019-01-15T08:15:39.187Z,3.70
2019-01-15T08:18:07.707Z,3.60
2019-01-15T08:20:36.066Z,3.70
2019-01-15T08:23:04.817Z,3.70
2019-01-15T08:25:33.497Z,3.70
2019-01-15T08:28:02.042Z,3.80
2019-01-15T08:30:35.856Z,3.80
2019-01-15T08:33:04.613Z,3.80
2019-01-15T08:35:33.379Z,3.90
2019-01-15T08:38:02.001Z,4.00
2019-01-15T08:40:30.716Z,4.00
2019-01-15T08:42:59.101Z,4.10
2019-01-15T08:45:27.775Z,4.20
2019-01-15T08:48:22.615Z,4.20
2019-01-15T08:50:52.297Z,4.20
2019-01-15T08:53:22.180Z,4.30
2019-01-15T08:55:52.562Z,4.40
2019-01-15T08:58:21.107Z,4.40
2019-01-15T09:00:51.461Z,4.50
2019-01-15T09:03:19.938Z,4.50
2019-01-15T09:05:50.584Z,4.60
2019-01-15T09:08:21.586Z,4.70
2019-01-15T09:10:50.122Z,4.70
2019-01-15T09:13:18.539Z,4.70
2019-01-15T09:15:46.969Z,4.80
2019-01-15T09:18:17.092Z,4.80
2019-01-15T09:20:49.660Z,4.90
2019-01-15T09:23:17.958Z,4.90
2019-01-15T09:25:46.476Z,4.90
2019-01-15T09:28:15.111Z,5.00
2019-01-15T09:30:43.804Z,5.10
2019-01-15T09:33:12.804Z,5.10
2019-01-15T09:35:41.473Z,5.20
2019-01-15T09:38:10.021Z,5.30
2019-01-15T09:40:38.396Z,5.30
2019-01-15T09:43:07.206Z,5.30
2019-01-15T09:45:35.924Z,5.30
2019-01-15T09:48:06.882Z,5.30
2019-01-15T09:50:35.287Z,5.40
2019-01-15T09:53:04.669Z,5.50
2019-01-15T09:55:35.369Z,5.60
2019-01-15T09:58:04.015Z,5.80
2019-01-15T10:00:32.462Z,5.90
2019-01-15T10:03:01.408Z,5.90
2019-01-15T10:05:29.915Z,6.00
2019-01-15T10:07:58.355Z,6.00
2019-01-15T10:10:26.718Z,6.10
2019-01-15T10:12:55.218Z,6.50
2019-01-15T10:15:23.600Z,7.00
2019-01-15T10:17:52.220Z,7.40
2019-01-15T10:20:20.681Z,7.60
2019-01-15T10:22:49.301Z,7.70
2019-01-15T10:25:19.525Z,7.60
2019-01-15T10:27:49.754Z,7.30
2019-01-15T10:30:43.997Z,7.20
2019-01-15T10:33:27.797Z,7.20
2019-01-15T10:35:56.507Z,7.00
2019-01-15T10:38:29.162Z,6.90
2019-01-15T10:40:58.437Z,6.90
2019-01-15T10:43:27.478Z,6.80
2019-01-15T10:45:57.689Z,6.90
2019-01-15T10:48:26.045Z,6.90
2019-01-15T10:50:54.615Z,7.00
2019-01-15T10:53:23.381Z,7.10
2019-01-15T10:55:51.805Z,7.10
2019-01-15T10:58:20.196Z,7.20
2019-01-15T11:00:48.526Z,7.20
2019-01-15T11:03:19.683Z,7.00
2019-01-15T11:05:48.095Z,7.00
2019-01-15T11:08:16.691Z,8.00
2019-01-15T11:10:45.087Z,8.60
2019-01-15T11:13:14.167Z,8.80
2019-01-15T11:15:43.416Z,8.80
2019-01-15T11:18:14.026Z,8.70
2019-01-15T11:20:42.489Z,8.80
2019-01-15T11:23:12.582Z,9.50
2019-01-15T11:25:41.352Z,10.50
2019-01-15T11:28:12.965Z,11.70
2019-01-15T11:30:41.489Z,12.80
2019-01-15T11:33:09.880Z,13.80
2019-01-15T11:35:38.436Z,14.20
2019-01-15T11:38:06.922Z,13.60
2019-01-15T11:40:35.346Z,13.20
2019-01-15T11:43:05.568Z,13.00
2019-01-15T11:45:40.308Z,13.40
2019-01-15T11:48:12.482Z,14.10
2019-01-15T11:50:43.673Z,14.10
2019-01-15T11:53:12.077Z,13.60
2019-01-15T11:55:40.800Z,12.70
2019-01-15T11:58:09.367Z,11.80
2019-01-15T12:00:39.703Z,10.80
2019-01-15T12:03:15.403Z,10.40
2019-01-15T12:06:02.161Z,10.20
2019-01-15T12:08:35.236Z,10.50
2019-01-15T12:11:14.579Z,10.50
2019-01-15T12:13:44.894Z,11.00
2019-01-15T12:16:34.295Z,11.80
2019-01-15T12:19:04.406Z,12.40
2019-01-15T12:21:34.657Z,12.50
2019-01-15T12:24:37.814Z,12.60
2019-01-15T12:27:07.901Z,13.00
2019-01-15T12:29:40.672Z,12.70
2019-01-15T12:32:16.679Z,12.20
2019-01-15T12:35:02.948Z,12.40
2019-01-15T12:37:48.984Z,12.00
2019-01-15T12:40:21.701Z,11.40
2019-01-15T12:43:09.608Z,11.90
2019-01-15T12:45:42.325Z,12.80
2019-01-15T12:51:19.530Z,12.20
2019-01-15T12:57:07.607Z,11.90
2019-01-15T12:59:37.852Z,11.60
2019-01-15T13:02:07.958Z,10.70
2019-01-15T13:04:43.895Z,9.60
2019-01-15T13:07:14.151Z,9.70
2019-01-15T13:09:47.225Z,9.40
2019-01-15T13:12:20.238Z,8.70
2019-01-15T13:14:50.580Z,8.00
2019-01-15T13:20:24.340Z,8.10
2019-01-15T13:26:13.857Z,8.20
2019-01-15T13:28:50.504Z,8.40
2019-01-15T13:31:32.440Z,8.30
2019-01-15T13:34:02.482Z,8.20
2019-01-15T13:36:32.780Z,8.10
2019-01-15T13:39:31.823Z,8.20
2019-01-15T13:42:05.012Z,8.10
2019-01-15T13:44:35.610Z,7.70
2019-01-15T13:47:05.832Z,7.50
2019-01-15T13:50:00.422Z,7.70
2019-01-15T13:52:38.824Z,7.60
2019-01-15T13:55:09.211Z,7.60
2019-01-15T13:57:48.606Z,7.40
2019-01-15T14:00:19.011Z,7.40
2019-01-15T14:02:49.552Z,7.50
2019-01-15T14:05:25.839Z,7.30
2019-01-15T14:08:12.193Z,7.30
2019-01-15T14:10:54.093Z,7.40
2019-01-15T14:13:24.515Z,7.30
2019-01-15T14:16:17.371Z,7.40
2019-01-15T14:18:53.798Z,7.20
2019-01-15T14:21:26.736Z,6.80
2019-01-15T14:23:56.883Z,6.70
2019-01-15T14:26:30.087Z,6.50
2019-01-15T14:29:03.489Z,6.50
2019-01-15T14:31:36.215Z,6.50
2019-01-15T14:34:06.410Z,6.30
2019-01-15T14:39:57.213Z,6.20
2019-01-15T14:42:30.081Z,6.30
2019-01-15T14:45:00.377Z,6.30
2019-01-15T14:47:33.910Z,6.20
2019-01-15T14:50:26.410Z,6.30
2019-01-15T14:56:17.446Z,6.10
2019-01-15T14:58:53.518Z,6.10
2019-01-15T15:01:39.857Z,6.10
2019-01-15T15:04:12.805Z,6.00
2019-01-15T15:06:46.025Z,6.00
2019-01-15T15:09:19.053Z,6.00
2019-01-15T15:11:55.562Z,5.90
2019-01-15T15:14:25.659Z,5.60
2019-01-15T15:16:55.783Z,5.60
2019-01-15T15:22:25.654Z,5.60
2019-01-15T15:24:58.779Z,5.60
2019-01-15T15:27:44.990Z,5.50
2019-01-15T15:30:33.469Z,5.40
2019-01-15T15:33:26.034Z,5.40
2019-01-15T15:36:30.942Z,5.40
2019-01-15T15:39:03.987Z,5.30
2019-01-15T15:41:34.185Z,5.30
2019-01-15T15:44:07.120Z,5.30
2019-01-15T15:46:53.748Z,5.30
2019-01-15T15:49:26.907Z,5.30
2019-01-15T15:51:59.567Z,5.30
2019-01-15T15:54:35.400Z,5.40
2019-01-15T15:57:11.291Z,5.40
2019-01-15T15:59:57.625Z,5.40
2019-01-15T16:02:32.016Z,5.40
2019-01-15T16:05:04.952Z,5.40
2019-01-15T16:07:51.631Z,5.40
2019-01-15T16:10:24.609Z,5.40
2019-01-15T16:13:09.897Z,5.30
2019-01-15T16:15:59.292Z,5.30
2019-01-15T16:21:24.710Z,5.20
2019-01-15T16:23:59.098Z,5.20
2019-01-15T16:26:31.361Z,5.20
2019-01-15T16:29:21.016Z,5.10
2019-01-15T16:31:58.092Z,5.10
2019-01-15T16:34:34.305Z,5.00
2019-01-15T16:40:01.636Z,4.80
2019-01-15T16:42:41.530Z,4.80
2019-01-15T16:45:15.778Z,4.70
2019-01-15T16:47:47.754Z,4.70
2019-01-15T16:50:24.006Z,4.70
2019-01-15T16:52:54.549Z,4.60
2019-01-15T16:55:49.745Z,4.60
2019-01-15T16:58:22.916Z,4.60
2019-01-15T17:00:58.925Z,4.50
2019-01-15T17:03:47.777Z,4.50
2019-01-15T17:06:18.261Z,4.50
2019-01-15T17:09:17.141Z,4.40
2019-01-15T17:12:04.037Z,4.40
2019-01-15T17:17:30.711Z,4.30
2019-01-15T17:20:17.109Z,4.30
2019-01-15T17:22:52.997Z,4.50
2019-01-15T17:25:54.701Z,4.60
2019-01-15T17:28:29.658Z,4.50
2019-01-15T17:31:05.617Z,4.30
2019-01-15T17:33:52.103Z,4.10
2019-01-15T17:36:28.206Z,4.00
2019-01-15T17:39:01.011Z,3.90
2019-01-15T17:44:41.603Z,3.60
2019-01-15T17:47:18.598Z,3.60
2019-01-15T17:49:48.794Z,3.60
2019-01-15T17:52:35.163Z,3.60
2019-01-15T17:55:06.152Z,3.70
2019-01-15T18:00:57.319Z,3.60
2019-01-15T18:07:04.514Z,3.70
2019-01-15T18:09:34.539Z,3.80
2019-01-15T18:15:25.262Z,3.70
2019-01-15T18:17:58.084Z,3.80
2019-01-15T18:20:44.932Z,3.80
2019-01-15T18:23:39.055Z,3.80
2019-01-15T18:26:12.015Z,3.80
2019-01-15T18:28:43.822Z,3.80
2019-01-15T18:31:17.239Z,3.80
2019-01-15T18:34:03.766Z,3.70
2019-01-15T18:36:33.927Z,3.70
2019-01-15T18:39:20.184Z,3.60
2019-01-15T18:41:52.857Z,3.60
2019-01-15T18:47:44.081Z,3.40
2019-01-15T18:50:17.057Z,3.50
2019-01-15T18:52:50.211Z,3.60
2019-01-15T18:55:35.179Z,3.60
2019-01-15T18:58:21.585Z,3.60
2019-01-15T19:00:54.270Z,3.60
2019-01-15T19:06:31.216Z,3.50
2019-01-15T19:09:01.580Z,3.50
2019-01-15T19:11:51.408Z,3.60
2019-01-15T19:14:37.785Z,3.50
2019-01-15T19:20:02.842Z,3.60
2019-01-15T19:22:38.383Z,3.60
2019-01-15T19:25:14.129Z,3.60
2019-01-15T19:27:59.603Z,3.60
2019-01-15T19:30:33.348Z,3.60
2019-01-15T19:33:23.625Z,3.60
2019-01-15T19:36:29.874Z,3.60
2019-01-15T19:39:16.052Z,3.50
2019-01-15T19:42:02.443Z,3.50
2019-01-15T19:44:32.572Z,3.50
2019-01-15T19:47:02.581Z,3.50
2019-01-15T19:49:49.005Z,3.50
2019-01-15T19:52:22.182Z,3.50
2019-01-15T19:55:12.083Z,3.60
2019-01-15T19:57:48.182Z,3.50
2019-01-15T20:00:21.664Z,3.50
2019-01-15T20:03:14.333Z,3.50
2019-01-15T20:05:44.605Z,3.50
2019-01-15T20:08:31.074Z,3.50
2019-01-15T20:11:23.675Z,3.40
2019-01-15T20:14:05.210Z,3.40
2019-01-15T20:16:35.049Z,3.30
2019-01-15T20:19:21.676Z,3.20
2019-01-15T20:21:54.445Z,3.20
2019-01-15T20:24:47.165Z,3.10
2019-01-15T20:27:19.464Z,3.10
2019-01-15T20:36:24.880Z,3.00
2019-01-15T20:38:56.151Z,3.00
2019-01-15T20:41:29.206Z,3.00
2019-01-15T20:43:59.675Z,3.00
2019-01-15T20:46:46.244Z,2.90
2019-01-15T20:49:16.448Z,2.90
2019-01-15T20:52:21.672Z,2.80
2019-01-15T21:01:04.725Z,2.60
2019-01-15T21:03:38.662Z,2.60
2019-01-15T21:06:12.767Z,2.50
2019-01-15T21:08:42.956Z,2.50
2019-01-15T21:11:29.320Z,2.50
2019-01-15T21:14:02.169Z,2.50
2019-01-15T21:17:05.184Z,2.50
2019-01-15T21:19:43.782Z,2.50
2019-01-15T21:22:17.000Z,2.50
2019-01-15T21:24:48.446Z,2.50
2019-01-15T21:27:18.452Z,2.50
2019-01-15T21:29:51.555Z,2.50
2019-01-15T21:32:38.107Z,2.50
2019-01-15T21:35:10.786Z,2.50
2019-01-15T21:37:44.352Z,2.40
2019-01-15T21:40:14.577Z,2.40
2019-01-15T21:42:50.641Z,2.30
2019-01-15T21:45:33.809Z,2.30
2019-01-15T21:48:09.609Z,2.30
2019-01-15T21:51:02.393Z,2.20
2019-01-15T21:53:48.967Z,2.20
2019-01-15T21:56:19.380Z,2.20
2019-01-15T21:58:58.419Z,2.10
2019-01-15T22:01:28.507Z,2.10
2019-01-15T22:04:15.146Z,2.10
2019-01-15T22:07:01.537Z,2.00
2019-01-15T22:09:48.056Z,2.00
2019-01-15T22:12:20.845Z,2.00
2019-01-15T22:15:25.760Z,2.00
2019-01-15T22:21:01.050Z,1.90
2019-01-15T22:23:31.248Z,1.90
2019-01-15T22:26:16.222Z,1.90
2019-01-15T22:28:46.528Z,1.80
2019-01-15T22:31:22.984Z,1.80
2019-01-15T22:33:53.311Z,1.80
2019-01-15T22:36:23.458Z,1.80
2019-01-15T22:38:56.555Z,1.80
2019-01-15T22:41:43.043Z,1.80
2019-01-15T22:44:34.988Z,1.80
2019-01-15T22:47:17.223Z,1.80
2019-01-15T22:50:02.717Z,1.70
2019-01-15T22:52:32.853Z,1.70
2019-01-15T22:55:02.943Z,1.70
2019-01-15T22:57:41.063Z,1.70
2019-01-15T23:00:44.897Z,1.80
2019-01-15T23:03:21.323Z,1.80
2019-01-15T23:05:51.483Z,1.80
2019-01-15T23:08:21.820Z,1.80
2019-01-15T23:11:06.971Z,1.80
2019-01-15T23:13:37.091Z,1.70
2019-01-15T23:16:23.962Z,1.70
2019-01-15T23:19:00.187Z,1.70
2019-01-15T23:21:33.153Z,1.70
2019-01-15T23:24:12.215Z,1.60
2019-01-15T23:26:42.494Z,1.60
2019-01-15T23:29:15.569Z,1.60
2019-01-15T23:32:07.329Z,1.50
2019-01-15T23:34:53.784Z,1.50
2019-01-15T23:37:26.708Z,1.40
2019-01-15T23:40:15.380Z,1.40
2019-01-15T23:42:45.434Z,1.40
2019-01-15T23:45:15.695Z,1.40
2019-01-15T23:48:09.895Z,1.30
2019-01-15T23:50:56.521Z,1.30
2019-01-15T23:53:42.819Z,1.30
2019-01-15T23:56:34.686Z,1.30
2019-01-15T23:59:16.875Z,1.30
